createdAt,value
2019-05-17T00:00:39.710Z,98278.87
2019-05-17T00:01:47.621Z,98272.50
2019-05-17T00:02:57.161Z,98275.00
2019-05-17T00:04:07.264Z,98274.87
2019-05-17T00:05:17.534Z,98274.19
2019-05-17T00:06:27.380Z,98273.69
2019-05-17T00:07:36.957Z,98271.84
2019-05-17T00:08:47.141Z,98264.81
2019-05-17T00:09:57.095Z,98267.16
2019-05-17T00:11:06.646Z,98269.67
2019-05-17T00:12:17.182Z,98264.81
2019-05-17T00:13:26.874Z,98263.81
2019-05-17T00:14:36.551Z,98265.13
2019-05-17T00:15:47.252Z,98264.30
2019-05-17T00:16:57.103Z,98271.17
2019-05-17T00:18:06.755Z,98270.48
2019-05-17T00:19:16.898Z,98280.37
2019-05-17T00:20:26.667Z,98273.98
2019-05-17T00:21:36.933Z,98279.34
2019-05-17T00:22:47.183Z,98270.47
2019-05-17T00:23:57.224Z,98273.84
2019-05-17T00:25:08.080Z,98272.16
2019-05-17T00:26:16.961Z,98268.14
2019-05-17T00:27:26.465Z,98272.31
2019-05-17T00:28:37.284Z,98271.32
2019-05-17T00:29:46.524Z,98269.98
2019-05-17T00:30:57.127Z,98271.15
2019-05-17T00:32:06.442Z,98269.14
2019-05-17T00:33:16.938Z,98265.95
2019-05-17T00:34:27.025Z,98263.28
2019-05-17T00:35:37.614Z,98263.46
2019-05-17T00:36:46.958Z,98264.30
2019-05-17T00:37:57.078Z,98264.80
2019-05-17T00:39:07.422Z,98258.11
2019-05-17T00:40:17.938Z,98260.61
2019-05-17T00:41:26.892Z,98257.09
2019-05-17T00:42:37.273Z,98256.77
2019-05-17T00:43:46.223Z,98258.44
2019-05-17T00:44:56.533Z,98256.27
2019-05-17T00:46:06.698Z,98258.42
2019-05-17T00:47:16.991Z,98258.75
2019-05-17T00:48:26.494Z,98259.25
2019-05-17T00:49:36.979Z,98264.10
2019-05-17T00:50:44.538Z,98253.39
2019-05-17T00:51:53.025Z,98258.59
2019-05-17T00:53:01.234Z,98256.75
2019-05-17T00:54:09.892Z,98255.58
2019-05-17T00:55:17.911Z,98253.23
2019-05-17T00:56:26.743Z,98255.08
2019-05-17T00:57:36.662Z,98253.41
2019-05-17T00:58:47.581Z,98251.39
2019-05-17T00:59:56.567Z,98251.39
2019-05-17T01:01:08.403Z,98255.58
2019-05-17T01:02:16.343Z,98260.26
2019-05-17T01:03:26.957Z,98264.78
2019-05-17T01:04:36.814Z,98261.44
2019-05-17T01:05:47.167Z,98259.40
2019-05-17T01:06:56.293Z,98261.44
2019-05-17T01:08:07.313Z,98262.44
2019-05-17T01:09:17.052Z,98266.28
2019-05-17T01:10:27.198Z,98265.45
2019-05-17T01:11:36.610Z,98262.27
2019-05-17T01:12:44.898Z,98263.61
2019-05-17T01:13:55.483Z,98270.63
2019-05-17T01:15:03.426Z,98269.13
2019-05-17T01:16:11.410Z,98263.76
2019-05-17T01:17:20.056Z,98268.27
2019-05-17T01:18:27.756Z,98270.59
2019-05-17T01:19:36.681Z,98268.93
2019-05-17T01:20:47.292Z,98262.89
2019-05-17T01:21:56.840Z,98257.67
2019-05-17T01:23:07.270Z,98260.72
2019-05-17T01:24:17.094Z,98266.73
2019-05-17T01:25:24.427Z,98265.70
2019-05-17T01:26:33.309Z,98263.20
2019-05-17T01:27:41.429Z,98258.66
2019-05-17T01:28:50.212Z,98264.02
2019-05-17T01:29:58.417Z,98254.28
2019-05-17T01:31:07.334Z,98258.97
2019-05-17T01:32:17.263Z,98259.81
2019-05-17T01:33:26.484Z,98263.09
2019-05-17T01:34:34.787Z,98262.59
2019-05-17T01:35:43.736Z,98256.07
2019-05-17T01:36:51.802Z,98263.39
2019-05-17T01:38:00.430Z,98262.89
2019-05-17T01:39:17.619Z,98262.73
2019-05-17T01:40:19.483Z,98260.89
2019-05-17T01:41:27.615Z,98264.20
2019-05-17T01:42:37.507Z,98261.52
2019-05-17T01:43:47.417Z,98257.31
2019-05-17T01:44:56.748Z,98256.81
2019-05-17T01:46:06.672Z,98259.95
2019-05-17T01:47:16.661Z,98257.28
2019-05-17T01:48:26.925Z,98252.44
2019-05-17T01:49:36.345Z,98252.09
2019-05-17T01:50:46.444Z,98255.73
2019-05-17T01:51:56.810Z,98254.94
2019-05-17T01:53:07.126Z,98260.75
2019-05-17T01:54:17.324Z,98258.91
2019-05-17T01:55:26.588Z,98261.75
2019-05-17T01:56:37.030Z,98264.42
2019-05-17T01:57:47.418Z,98265.47
2019-05-17T01:58:57.528Z,98269.77
2019-05-17T02:00:11.763Z,98263.72
2019-05-17T02:01:20.952Z,98262.38
2019-05-17T02:02:30.689Z,98260.38
2019-05-17T02:03:39.547Z,98256.53
2019-05-17T02:04:47.450Z,98264.34
2019-05-17T02:05:56.628Z,98257.16
2019-05-17T02:07:06.859Z,98265.17
2019-05-17T02:08:17.085Z,98257.33
2019-05-17T02:09:34.859Z,98261.97
2019-05-17T02:10:37.442Z,98261.80
2019-05-17T02:11:46.642Z,98261.63
2019-05-17T02:12:57.056Z,98256.28
2019-05-17T02:14:06.893Z,98257.78
2019-05-17T02:15:16.873Z,98256.23
2019-05-17T02:16:26.751Z,98255.28
2019-05-17T02:17:37.184Z,98258.45
2019-05-17T02:18:46.618Z,98256.63
2019-05-17T02:19:57.325Z,98259.00
2019-05-17T02:21:06.498Z,98257.66
2019-05-17T02:22:16.784Z,98264.34
2019-05-17T02:23:27.048Z,98255.86
2019-05-17T02:24:37.033Z,98261.83
2019-05-17T02:25:47.225Z,98259.33
2019-05-17T02:26:57.013Z,98258.28
2019-05-17T02:28:05.658Z,98257.78
2019-05-17T02:29:14.614Z,98255.91
2019-05-17T02:30:23.554Z,98259.90
2019-05-17T02:31:33.178Z,98254.52
2019-05-17T02:32:44.200Z,98252.64
2019-05-17T02:33:53.563Z,98250.80
2019-05-17T02:35:03.307Z,98245.95
2019-05-17T02:36:14.124Z,98254.47
2019-05-17T02:37:23.178Z,98249.45
2019-05-17T02:38:33.411Z,98246.95
2019-05-17T02:39:57.075Z,98246.12
2019-05-17T02:40:53.536Z,98246.62
2019-05-17T02:42:02.870Z,98241.45
2019-05-17T02:43:13.293Z,98243.12
2019-05-17T02:44:23.539Z,98251.30
2019-05-17T02:45:33.016Z,98248.28
2019-05-17T02:46:43.390Z,98248.78
2019-05-17T02:47:53.742Z,98246.41
2019-05-17T02:49:03.037Z,98251.95
2019-05-17T02:50:13.078Z,98255.97
2019-05-17T02:51:23.715Z,98255.25
2019-05-17T02:52:32.848Z,98255.87
2019-05-17T02:53:42.942Z,98253.91
2019-05-17T02:54:52.694Z,98257.21
2019-05-17T02:56:03.266Z,98263.26
2019-05-17T02:57:14.191Z,98262.04
2019-05-17T02:58:23.291Z,98266.70
2019-05-17T02:59:33.071Z,98267.88
2019-05-17T03:00:44.263Z,98264.53
2019-05-17T03:01:52.724Z,98267.16
2019-05-17T03:03:03.326Z,98266.38
2019-05-17T03:04:13.042Z,98271.66
2019-05-17T03:05:23.243Z,98268.00
2019-05-17T03:06:32.900Z,98267.98
2019-05-17T03:07:43.989Z,98269.99
2019-05-17T03:08:52.504Z,98270.17
2019-05-17T03:10:13.581Z,98264.66
2019-05-17T03:11:13.557Z,98269.00
2019-05-17T03:12:23.648Z,98258.65
2019-05-17T03:13:32.863Z,98261.03
2019-05-17T03:14:43.352Z,98270.17
2019-05-17T03:15:52.773Z,98271.00
2019-05-17T03:17:03.356Z,98262.66
2019-05-17T03:18:13.396Z,98275.02
2019-05-17T03:19:23.525Z,98263.31
2019-05-17T03:20:32.925Z,98270.37
2019-05-17T03:21:42.933Z,98266.55
2019-05-17T03:22:52.678Z,98269.38
2019-05-17T03:24:03.104Z,98265.05
2019-05-17T03:25:13.707Z,98264.53
2019-05-17T03:26:23.141Z,98260.37
2019-05-17T03:27:33.697Z,98261.03
2019-05-17T03:28:42.645Z,98254.15
2019-05-17T03:29:53.703Z,98256.98
2019-05-17T03:31:07.736Z,98257.43
2019-05-17T03:32:17.101Z,98260.25
2019-05-17T03:33:26.418Z,98254.70
2019-05-17T03:34:36.836Z,98262.16
2019-05-17T03:35:45.776Z,98259.44
2019-05-17T03:36:56.535Z,98254.76
2019-05-17T03:38:04.231Z,98265.05
2019-05-17T03:39:13.096Z,98262.04
2019-05-17T03:40:46.381Z,98263.72
2019-05-17T03:41:34.104Z,98269.05
2019-05-17T03:42:42.874Z,98266.02
2019-05-17T03:43:53.365Z,98265.03
2019-05-17T03:45:03.019Z,98272.48
2019-05-17T03:46:13.950Z,98272.72
2019-05-17T03:47:22.675Z,98280.39
2019-05-17T03:48:33.327Z,98279.05
2019-05-17T03:49:43.613Z,98274.21
2019-05-17T03:50:53.127Z,98283.73
2019-05-17T03:52:02.781Z,98283.39
2019-05-17T03:53:13.131Z,98277.40
2019-05-17T03:54:22.669Z,98280.62
2019-05-17T03:55:33.340Z,98283.11
2019-05-17T03:56:42.708Z,98280.23
2019-05-17T03:57:53.191Z,98280.83
2019-05-17T03:59:03.695Z,98284.99
2019-05-17T04:00:13.482Z,98286.15
2019-05-17T04:01:23.293Z,98283.98
2019-05-17T04:02:32.768Z,98277.56
2019-05-17T04:03:43.444Z,98287.92
2019-05-17T04:04:52.959Z,98280.47
2019-05-17T04:06:03.919Z,98279.63
2019-05-17T04:07:12.741Z,98284.84
2019-05-17T04:08:22.969Z,98278.66
2019-05-17T04:09:32.824Z,98275.98
2019-05-17T04:10:42.552Z,98278.77
2019-05-17T04:11:53.577Z,98277.98
2019-05-17T04:13:04.054Z,98282.72
2019-05-17T04:14:14.008Z,98277.87
2019-05-17T04:15:24.114Z,98279.05
2019-05-17T04:16:33.973Z,98279.57
2019-05-17T04:17:44.109Z,98274.94
2019-05-17T04:18:53.463Z,98283.30
2019-05-17T04:20:03.419Z,98278.97
2019-05-17T04:21:12.640Z,98277.79
2019-05-17T04:22:23.622Z,98280.45
2019-05-17T04:23:33.934Z,98283.47
2019-05-17T04:24:43.846Z,98276.95
2019-05-17T04:25:53.098Z,98274.62
2019-05-17T04:27:03.681Z,98267.11
2019-05-17T04:28:13.602Z,98271.27
2019-05-17T04:29:22.695Z,98270.59
2019-05-17T04:30:32.755Z,98270.13
2019-05-17T04:31:43.491Z,98272.00
2019-05-17T04:32:52.667Z,98265.95
2019-05-17T04:34:02.957Z,98269.17
2019-05-17T04:35:12.911Z,98270.92
2019-05-17T04:36:22.500Z,98269.93
2019-05-17T04:37:33.903Z,98272.48
2019-05-17T04:38:43.551Z,98276.78
2019-05-17T04:39:52.585Z,98279.95
2019-05-17T04:41:03.215Z,98276.44
2019-05-17T04:42:13.598Z,98283.80
2019-05-17T04:43:23.043Z,98282.44
2019-05-17T04:44:32.288Z,98285.45
2019-05-17T04:45:42.604Z,98282.62
2019-05-17T04:46:53.525Z,98286.81
2019-05-17T04:48:03.647Z,98285.80
2019-05-17T04:49:13.793Z,98297.03
2019-05-17T04:50:23.051Z,98285.30
2019-05-17T04:51:32.414Z,98284.73
2019-05-17T04:52:42.955Z,98288.13
2019-05-17T04:53:52.996Z,98282.78
2019-05-17T04:55:04.193Z,98282.86
2019-05-17T04:56:14.129Z,98287.44
2019-05-17T04:57:23.121Z,98284.95
2019-05-17T04:58:33.568Z,98280.63
2019-05-17T04:59:43.407Z,98282.67
2019-05-17T05:00:53.761Z,98277.17
2019-05-17T05:02:03.138Z,98276.84
2019-05-17T05:03:12.907Z,98277.68
2019-05-17T05:04:22.616Z,98276.01
2019-05-17T05:05:33.009Z,98271.50
2019-05-17T05:06:43.547Z,98271.66
2019-05-17T05:07:53.570Z,98275.34
2019-05-17T05:09:02.635Z,98278.02
2019-05-17T05:10:13.495Z,98273.73
2019-05-17T05:11:23.375Z,98271.44
2019-05-17T05:12:33.547Z,98278.29
2019-05-17T05:13:42.570Z,98279.84
2019-05-17T05:14:52.300Z,98284.06
2019-05-17T05:16:02.973Z,98289.25
2019-05-17T05:17:12.787Z,98291.96
2019-05-17T05:18:22.193Z,98291.97
2019-05-17T05:19:33.082Z,98296.52
2019-05-17T05:20:43.548Z,98297.87
2019-05-17T05:21:52.172Z,98298.36
2019-05-17T05:23:02.641Z,98297.98
2019-05-17T05:24:11.593Z,98300.45
2019-05-17T05:25:21.637Z,98301.27
2019-05-17T05:26:31.789Z,98311.95
2019-05-17T05:27:42.643Z,98309.39
2019-05-17T05:28:52.848Z,98311.17
2019-05-17T05:30:03.042Z,98315.41
2019-05-17T05:31:13.290Z,98315.97
2019-05-17T05:32:22.047Z,98318.95
2019-05-17T05:33:33.238Z,98319.64
2019-05-17T05:34:42.962Z,98316.45
2019-05-17T05:35:51.883Z,98319.63
2019-05-17T05:37:02.163Z,98319.41
2019-05-17T05:38:12.919Z,98313.05
2019-05-17T05:39:22.706Z,98307.38
2019-05-17T05:40:32.077Z,98314.07
2019-05-17T05:41:42.710Z,98320.07
2019-05-17T05:42:51.619Z,98321.67
2019-05-17T05:44:01.902Z,98321.57
2019-05-17T05:45:12.103Z,98319.72
2019-05-17T05:46:22.410Z,98322.85
2019-05-17T05:47:32.331Z,98322.91
2019-05-17T05:48:41.607Z,98322.49
2019-05-17T05:49:52.043Z,98323.22
2019-05-17T05:51:03.012Z,98320.39
2019-05-17T05:52:12.542Z,98318.38
2019-05-17T05:53:21.806Z,98324.11
2019-05-17T05:54:32.011Z,98319.95
2019-05-17T05:55:42.737Z,98315.11
2019-05-17T05:56:52.485Z,98320.23
2019-05-17T05:58:02.833Z,98319.27
2019-05-17T05:59:12.366Z,98316.66
2019-05-17T06:00:22.956Z,98312.23
2019-05-17T06:01:32.603Z,98311.60
2019-05-17T06:02:41.957Z,98312.83
2019-05-17T06:03:52.035Z,98307.80
2019-05-17T06:05:02.015Z,98311.47
2019-05-17T06:06:12.371Z,98310.81
2019-05-17T06:07:21.663Z,98310.83
2019-05-17T06:08:32.243Z,98313.00
2019-05-17T06:09:42.347Z,98316.73
2019-05-17T06:10:53.177Z,98311.95
2019-05-17T06:12:02.440Z,98314.63
2019-05-17T06:13:13.026Z,98318.08
2019-05-17T06:14:21.753Z,98319.92
2019-05-17T06:15:32.071Z,98317.75
2019-05-17T06:16:42.471Z,98324.91
2019-05-17T06:17:52.025Z,98319.25
2019-05-17T06:19:02.415Z,98324.77
2019-05-17T06:20:12.703Z,98327.44
2019-05-17T06:21:22.646Z,98327.31
2019-05-17T06:22:31.903Z,98337.00
2019-05-17T06:23:42.479Z,98331.16
2019-05-17T06:24:52.050Z,98330.38
2019-05-17T06:26:04.198Z,98325.98
2019-05-17T06:27:12.340Z,98325.27
2019-05-17T06:28:22.312Z,98323.42
2019-05-17T06:29:32.743Z,98317.46
2019-05-17T06:30:43.019Z,98322.64
2019-05-17T06:31:51.926Z,98315.30
2019-05-17T06:33:02.270Z,98314.19
2019-05-17T06:34:11.673Z,98317.95
2019-05-17T06:35:21.754Z,98318.17
2019-05-17T06:36:32.835Z,98315.92
2019-05-17T06:37:42.235Z,98313.96
2019-05-17T06:38:52.758Z,98321.52
2019-05-17T06:40:02.368Z,98318.72
2019-05-17T06:41:12.681Z,98314.00
2019-05-17T06:42:21.664Z,98314.38
2019-05-17T06:43:32.283Z,98323.39
2019-05-17T06:44:41.759Z,98325.73
2019-05-17T06:45:52.272Z,98321.59
2019-05-17T06:47:02.667Z,98323.47
2019-05-17T06:48:11.986Z,98323.44
2019-05-17T06:49:22.274Z,98325.67
2019-05-17T06:50:32.727Z,98326.05
2019-05-17T06:51:42.594Z,98328.58
2019-05-17T06:52:53.245Z,98331.42
2019-05-17T06:54:01.908Z,98327.34
2019-05-17T06:55:12.870Z,98326.84
2019-05-17T06:56:22.805Z,98327.81
2019-05-17T06:57:32.593Z,98324.70
2019-05-17T06:58:40.846Z,98316.15
2019-05-17T06:59:50.025Z,98318.19
2019-05-17T07:00:59.869Z,98327.11
2019-05-17T07:02:10.447Z,98325.29
2019-05-17T07:03:19.861Z,98327.16
2019-05-17T07:04:30.015Z,98334.03
2019-05-17T07:05:46.042Z,98325.69
2019-05-17T07:07:12.355Z,98335.43
2019-05-17T07:08:20.430Z,98328.24
2019-05-17T07:09:30.244Z,98331.42
2019-05-17T07:10:39.799Z,98334.79
2019-05-17T07:11:51.271Z,98333.80
2019-05-17T07:13:01.807Z,98334.79
2019-05-17T07:14:09.598Z,98328.75
2019-05-17T07:15:19.809Z,98335.13
2019-05-17T07:16:30.085Z,98331.45
2019-05-17T07:17:39.998Z,98335.47
2019-05-17T07:18:49.457Z,98335.84
2019-05-17T07:19:59.751Z,98334.67
2019-05-17T07:21:09.949Z,98338.70
2019-05-17T07:22:21.003Z,98341.56
2019-05-17T07:23:30.249Z,98342.06
2019-05-17T07:24:39.726Z,98341.89
2019-05-17T07:25:50.397Z,98337.20
2019-05-17T07:26:59.217Z,98340.56
2019-05-17T07:28:10.003Z,98340.22
2019-05-17T07:29:19.407Z,98342.90
2019-05-17T07:30:30.545Z,98345.25
2019-05-17T07:31:40.509Z,98338.53
2019-05-17T07:32:49.834Z,98342.89
2019-05-17T07:33:59.904Z,98341.88
2019-05-17T07:35:10.746Z,98340.05
2019-05-17T07:36:19.721Z,98341.38
2019-05-17T07:37:30.376Z,98343.90
2019-05-17T07:38:39.651Z,98341.22
2019-05-17T07:39:58.588Z,98333.83
2019-05-17T07:40:59.509Z,98342.22
2019-05-17T07:42:09.661Z,98344.88
2019-05-17T07:43:17.825Z,98344.20
2019-05-17T07:44:26.658Z,98344.84
2019-05-17T07:45:34.728Z,98345.85
2019-05-17T07:46:43.441Z,98344.16
2019-05-17T07:47:51.405Z,98341.50
2019-05-17T07:49:00.548Z,98343.34
2019-05-17T07:50:11.301Z,98342.64
2019-05-17T07:51:20.591Z,98346.82
2019-05-17T07:52:30.005Z,98350.99
2019-05-17T07:53:40.096Z,98346.64
2019-05-17T07:54:50.706Z,98345.80
2019-05-17T07:55:59.632Z,98347.33
2019-05-17T07:57:10.256Z,98347.45
2019-05-17T07:58:21.132Z,98340.73
2019-05-17T07:59:29.449Z,98346.28
2019-05-17T08:00:40.069Z,98349.30
2019-05-17T08:01:50.207Z,98348.13
2019-05-17T08:02:59.941Z,98349.80
2019-05-17T08:04:09.999Z,98344.47
2019-05-17T08:05:21.364Z,98348.82
2019-05-17T08:06:30.588Z,98344.80
2019-05-17T08:07:40.750Z,98344.76
2019-05-17T08:08:50.196Z,98340.91
2019-05-17T08:10:00.155Z,98335.69
2019-05-17T08:11:10.557Z,98336.81
2019-05-17T08:12:21.212Z,98339.31
2019-05-17T08:13:31.379Z,98343.34
2019-05-17T08:14:40.150Z,98337.64
2019-05-17T08:15:50.178Z,98337.09
2019-05-17T08:16:59.855Z,98338.89
2019-05-17T08:18:10.856Z,98340.88
2019-05-17T08:19:20.463Z,98344.17
2019-05-17T08:20:29.939Z,98344.99
2019-05-17T08:21:39.822Z,98346.93
2019-05-17T08:22:50.064Z,98342.84
2019-05-17T08:24:00.119Z,98345.36
2019-05-17T08:25:10.232Z,98348.54
2019-05-17T08:26:20.040Z,98350.56
2019-05-17T08:27:29.708Z,98347.20
2019-05-17T08:28:40.428Z,98346.95
2019-05-17T08:29:49.896Z,98342.51
2019-05-17T08:31:01.124Z,98342.70
2019-05-17T08:32:09.638Z,98338.06
2019-05-17T08:33:19.479Z,98339.63
2019-05-17T08:34:29.310Z,98339.52
2019-05-17T08:35:39.872Z,98334.69
2019-05-17T08:36:49.749Z,98333.98
2019-05-17T08:38:00.362Z,98336.07
2019-05-17T08:39:10.255Z,98342.06
2019-05-17T08:40:19.982Z,98338.73
2019-05-17T08:41:30.819Z,98338.38
2019-05-17T08:42:40.643Z,98341.84
2019-05-17T08:43:51.125Z,98339.17
2019-05-17T08:45:00.242Z,98339.17
2019-05-17T08:46:10.550Z,98339.59
2019-05-17T08:47:20.922Z,98340.02
2019-05-17T08:48:29.437Z,98333.18
2019-05-17T08:49:40.299Z,98326.61
2019-05-17T08:50:49.488Z,98330.26
2019-05-17T08:51:59.432Z,98330.90
2019-05-17T08:53:07.573Z,98333.84
2019-05-17T08:54:16.520Z,98334.60
2019-05-17T08:55:24.687Z,98335.91
2019-05-17T08:56:33.462Z,98332.15
2019-05-17T08:57:41.791Z,98333.23
2019-05-17T08:58:50.598Z,98328.87
2019-05-17T09:00:00.864Z,98329.02
2019-05-17T09:01:11.127Z,98327.60
2019-05-17T09:02:19.884Z,98328.98
2019-05-17T09:03:30.313Z,98330.06
2019-05-17T09:04:40.511Z,98321.77
2019-05-17T09:05:52.577Z,98326.00
2019-05-17T09:07:00.072Z,98320.17
2019-05-17T09:08:10.478Z,98323.70
2019-05-17T09:09:20.410Z,98323.97
2019-05-17T09:10:29.963Z,98326.59
2019-05-17T09:11:39.574Z,98322.18
2019-05-17T09:12:50.293Z,98320.88
2019-05-17T09:14:01.961Z,98317.91
2019-05-17T09:15:10.009Z,98319.48
2019-05-17T09:16:19.598Z,98326.61
2019-05-17T09:17:29.969Z,98322.55
2019-05-17T09:18:39.422Z,98319.39
2019-05-17T09:19:50.967Z,98313.63
2019-05-17T09:21:00.261Z,98316.04
2019-05-17T09:22:10.436Z,98314.75
2019-05-17T09:23:19.762Z,98315.16
2019-05-17T09:24:30.051Z,98314.23
2019-05-17T09:25:39.763Z,98309.04
2019-05-17T09:26:49.240Z,98312.67
2019-05-17T09:27:57.407Z,98311.06
2019-05-17T09:29:06.746Z,98310.39
2019-05-17T09:30:16.710Z,98313.43
2019-05-17T09:31:25.707Z,98317.39
2019-05-17T09:32:33.777Z,98321.44
2019-05-17T09:33:42.888Z,98320.85
2019-05-17T09:34:51.092Z,98324.12
2019-05-17T09:36:00.731Z,98326.16
2019-05-17T09:37:09.940Z,98321.95
2019-05-17T09:38:20.365Z,98327.28
2019-05-17T09:39:29.457Z,98319.59
2019-05-17T09:40:40.321Z,98322.40
2019-05-17T09:41:50.176Z,98324.78
2019-05-17T09:43:00.505Z,98319.70
2019-05-17T09:44:15.688Z,98323.38
2019-05-17T09:45:20.151Z,98322.69
2019-05-17T09:46:30.237Z,98320.27
2019-05-17T09:47:39.711Z,98319.32
2019-05-17T09:48:50.258Z,98314.02
2019-05-17T09:50:00.551Z,98317.84
2019-05-17T09:51:10.483Z,98312.74
2019-05-17T09:52:19.997Z,98318.29
2019-05-17T09:53:30.489Z,98304.98
2019-05-17T09:54:44.920Z,98314.37
2019-05-17T09:55:49.824Z,98311.05
2019-05-17T09:57:00.441Z,98312.31
2019-05-17T09:58:09.966Z,98309.07
2019-05-17T09:59:20.390Z,98302.48
2019-05-17T10:00:29.735Z,98311.25
2019-05-17T10:01:39.576Z,98302.22
2019-05-17T10:02:50.543Z,98303.31
2019-05-17T10:03:59.870Z,98303.72
2019-05-17T10:05:10.623Z,98297.47
2019-05-17T10:06:20.258Z,98302.65
2019-05-17T10:07:29.810Z,98301.52
2019-05-17T10:08:39.395Z,98297.40
2019-05-17T10:09:50.054Z,98297.02
2019-05-17T10:11:06.031Z,98297.06
2019-05-17T10:12:09.578Z,98287.98
2019-05-17T10:13:20.236Z,98294.85
2019-05-17T10:14:31.163Z,98291.39
2019-05-17T10:15:40.849Z,98289.93
2019-05-17T10:16:48.441Z,98293.88
2019-05-17T10:17:57.346Z,98282.42
2019-05-17T10:19:05.713Z,98291.38
2019-05-17T10:20:14.561Z,98288.41
2019-05-17T10:21:22.511Z,98283.63
2019-05-17T10:22:31.365Z,98284.33
2019-05-17T10:23:40.677Z,98280.82
2019-05-17T10:24:49.653Z,98283.11
2019-05-17T10:25:59.597Z,98277.44
2019-05-17T10:27:10.848Z,98281.70
2019-05-17T10:28:20.350Z,98274.84
2019-05-17T10:29:29.988Z,98283.26
2019-05-17T10:30:39.779Z,98273.36
2019-05-17T10:31:50.458Z,98272.25
2019-05-17T10:32:59.982Z,98271.87
2019-05-17T10:34:09.809Z,98268.06
2019-05-17T10:35:19.827Z,98274.78
2019-05-17T10:36:29.367Z,98264.51
2019-05-17T10:37:40.839Z,98272.04
2019-05-17T10:38:50.192Z,98270.41
2019-05-17T10:39:58.470Z,98268.41
2019-05-17T10:41:09.955Z,98268.68
2019-05-17T10:42:20.742Z,98263.16
2019-05-17T10:43:29.918Z,98263.16
2019-05-17T10:44:46.174Z,98262.17
2019-05-17T10:45:48.240Z,98257.80
2019-05-17T10:46:57.138Z,98256.81
2019-05-17T10:48:06.356Z,98260.77
2019-05-17T10:49:14.794Z,98264.05
2019-05-17T10:50:23.788Z,98263.22
2019-05-17T10:51:31.885Z,98260.28
2019-05-17T10:52:41.339Z,98263.95
2019-05-17T10:53:51.361Z,98265.05
2019-05-17T10:55:00.323Z,98265.08
2019-05-17T10:56:10.028Z,98265.66
2019-05-17T10:57:19.470Z,98270.86
2019-05-17T10:58:29.676Z,98267.57
2019-05-17T10:59:38.097Z,98273.84
2019-05-17T11:00:46.326Z,98272.11
2019-05-17T11:01:55.200Z,98271.32
2019-05-17T11:03:03.232Z,98266.82
2019-05-17T11:04:12.328Z,98273.23
2019-05-17T11:05:20.624Z,98271.68
2019-05-17T11:06:30.221Z,98272.27
2019-05-17T11:07:38.388Z,98279.56
2019-05-17T11:08:49.950Z,98278.52
2019-05-17T11:10:00.445Z,98279.69
2019-05-17T11:11:10.200Z,98269.16
2019-05-17T11:12:18.076Z,98273.34
2019-05-17T11:13:26.884Z,98272.55
2019-05-17T11:14:48.936Z,98271.91
2019-05-17T11:15:45.620Z,98275.20
2019-05-17T11:16:54.121Z,98272.69
2019-05-17T11:18:03.098Z,98275.88
2019-05-17T11:19:11.424Z,98282.08
2019-05-17T11:20:21.091Z,98283.78
2019-05-17T11:21:28.963Z,98272.86
2019-05-17T11:22:37.747Z,98274.88
2019-05-17T11:23:45.962Z,98272.18
2019-05-17T11:24:54.739Z,98266.67
2019-05-17T11:26:03.166Z,98267.06
2019-05-17T11:27:12.380Z,98255.45
2019-05-17T11:28:20.487Z,98253.84
2019-05-17T11:29:29.391Z,98253.80
2019-05-17T11:30:37.604Z,98246.75
2019-05-17T11:31:46.440Z,98248.91
2019-05-17T11:32:54.688Z,98235.60
2019-05-17T11:34:03.435Z,98238.98
2019-05-17T11:35:12.246Z,98244.40
2019-05-17T11:36:21.579Z,98250.41
2019-05-17T11:37:29.630Z,98234.60
2019-05-17T11:38:38.587Z,98240.92
2019-05-17T11:39:46.655Z,98238.30
2019-05-17T11:40:56.051Z,98228.40
2019-05-17T11:42:04.416Z,98237.98
2019-05-17T11:43:13.120Z,98239.72
2019-05-17T11:44:21.791Z,98237.84
2019-05-17T11:45:32.822Z,98243.88
2019-05-17T11:46:40.473Z,98235.80
2019-05-17T11:47:49.327Z,98247.00
2019-05-17T11:48:57.495Z,98249.68
2019-05-17T11:50:09.589Z,98241.72
2019-05-17T11:51:18.318Z,98243.80
2019-05-17T11:52:27.061Z,98247.31
2019-05-17T11:53:35.484Z,98246.99
2019-05-17T11:54:44.331Z,98256.73
2019-05-17T11:55:52.523Z,98261.06
2019-05-17T11:57:01.548Z,98251.10
2019-05-17T11:58:09.771Z,98254.89
2019-05-17T11:59:18.872Z,98251.09
2019-05-17T12:00:27.421Z,98254.49
2019-05-17T12:01:36.177Z,98255.56
2019-05-17T12:02:44.395Z,98250.80
2019-05-17T12:03:53.211Z,98261.51
2019-05-17T12:05:01.297Z,98254.64
2019-05-17T12:06:09.987Z,98260.41
2019-05-17T12:07:18.271Z,98267.39
2019-05-17T12:08:27.306Z,98258.52
2019-05-17T12:09:37.684Z,98265.13
2019-05-17T12:10:46.158Z,98266.31
2019-05-17T12:11:54.379Z,98263.91
2019-05-17T12:13:03.498Z,98261.64
2019-05-17T12:14:11.820Z,98253.62
2019-05-17T12:15:20.818Z,98263.28
2019-05-17T12:16:28.911Z,98260.38
2019-05-17T12:17:37.542Z,98262.39
2019-05-17T12:18:45.784Z,98260.64
2019-05-17T12:19:55.268Z,98270.08
2019-05-17T12:21:03.947Z,98262.39
2019-05-17T12:22:13.032Z,98270.64
2019-05-17T12:23:21.287Z,98265.70
2019-05-17T12:24:30.093Z,98262.73
2019-05-17T12:25:38.139Z,98266.06
2019-05-17T12:26:47.598Z,98267.32
2019-05-17T12:27:56.056Z,98261.99
2019-05-17T12:29:04.946Z,98269.80
2019-05-17T12:30:14.434Z,98257.97
2019-05-17T12:31:23.499Z,98260.26
2019-05-17T12:32:31.692Z,98255.87
2019-05-17T12:33:40.368Z,98263.74
2019-05-17T12:34:48.542Z,98260.69
2019-05-17T12:35:57.821Z,98268.11
2019-05-17T12:37:06.142Z,98269.05
2019-05-17T12:38:15.230Z,98279.30
2019-05-17T12:39:23.285Z,98279.95
2019-05-17T12:40:32.368Z,98277.34
2019-05-17T12:41:40.538Z,98288.30
2019-05-17T12:42:49.480Z,98287.34
2019-05-17T12:43:57.557Z,98282.34
2019-05-17T12:45:09.459Z,98287.06
2019-05-17T12:46:17.602Z,98287.02
2019-05-17T12:47:27.405Z,98282.71
2019-05-17T12:48:35.591Z,98284.75
2019-05-17T12:49:45.319Z,98275.29
2019-05-17T12:50:53.635Z,98276.09
2019-05-17T12:52:02.644Z,98273.98
2019-05-17T12:53:10.850Z,98275.26
2019-05-17T12:54:19.988Z,98270.28
2019-05-17T12:55:28.165Z,98275.21
2019-05-17T12:56:37.189Z,98274.23
2019-05-17T12:57:45.265Z,98279.53
2019-05-17T12:58:53.998Z,98271.37
2019-05-17T13:00:02.089Z,98268.95
2019-05-17T13:01:10.966Z,98266.58
2019-05-17T13:02:18.974Z,98273.30
2019-05-17T13:03:27.752Z,98269.37
2019-05-17T13:04:35.690Z,98276.52
2019-05-17T13:05:44.540Z,98277.05
2019-05-17T13:06:52.796Z,98274.27
2019-05-17T13:08:01.714Z,98275.23
2019-05-17T13:09:09.957Z,98278.64
2019-05-17T13:10:19.189Z,98279.84
2019-05-17T13:11:27.520Z,98284.61
2019-05-17T13:12:36.057Z,98278.41
2019-05-17T13:13:44.198Z,98281.41
2019-05-17T13:14:53.136Z,98280.36
2019-05-17T13:16:16.881Z,98280.77
2019-05-17T13:17:11.725Z,98280.75
2019-05-17T13:18:20.027Z,98277.05
2019-05-17T13:19:29.158Z,98276.22
2019-05-17T13:20:37.164Z,98274.45
2019-05-17T13:21:46.147Z,98276.08
2019-05-17T13:22:54.105Z,98277.64
2019-05-17T13:24:02.509Z,98285.42
2019-05-17T13:25:11.184Z,98274.09
2019-05-17T13:26:20.262Z,98287.24
2019-05-17T13:27:28.394Z,98279.42
2019-05-17T13:28:37.642Z,98277.33
2019-05-17T13:29:45.635Z,98278.30
2019-05-17T13:30:54.902Z,98281.65
2019-05-17T13:32:02.795Z,98286.29
2019-05-17T13:33:11.923Z,98283.12
2019-05-17T13:34:21.045Z,98284.48
2019-05-17T13:35:30.809Z,98288.48
2019-05-17T13:36:39.243Z,98282.38
2019-05-17T13:37:48.111Z,98281.02